sensor_id;sensor_type;location;lat;lon;timestamp;P1;durP1;ratioP1;P2;durP2;ratioP2
66272;SDS011;58450;52.150;4.466;2023-05-16T00:02:15;12.85;;;2.15;;
66272;SDS011;58450;52.150;4.466;2023-05-16T00:04:44;8.88;;;2.20;;
66272;SDS011;58450;52.150;4.466;2023-05-16T00:07:12;6.00;;;1.30;;
66272;SDS011;58450;52.150;4.466;2023-05-16T00:09:40;6.85;;;1.48;;
66272;SDS011;58450;52.150;4.466;2023-05-16T00:12:07;7.03;;;1.67;;
66272;SDS011;58450;52.150;4.466;2023-05-16T00:14:35;7.57;;;1.52;;
66272;SDS011;58450;52.150;4.466;2023-05-16T00:17:04;8.18;;;1.77;;
66272;SDS011;58450;52.150;4.466;2023-05-16T00:19:36;9.30;;;2.00;;
66272;SDS011;58450;52.150;4.466;2023-05-16T00:22:05;10.85;;;2.30;;
66272;SDS011;58450;52.150;4.466;2023-05-16T00:24:32;12.18;;;1.83;;
66272;SDS011;58450;52.150;4.466;2023-05-16T00:27:00;7.50;;;1.85;;
66272;SDS011;58450;52.150;4.466;2023-05-16T00:29:28;6.13;;;1.60;;
66272;SDS011;58450;52.150;4.466;2023-05-16T00:31:57;12.50;;;2.08;;
66272;SDS011;58450;52.150;4.466;2023-05-16T00:34:25;8.20;;;1.80;;
66272;SDS011;58450;52.150;4.466;2023-05-16T00:36:53;9.73;;;1.83;;
66272;SDS011;58450;52.150;4.466;2023-05-16T00:39:20;11.27;;;2.33;;
66272;SDS011;58450;52.150;4.466;2023-05-16T00:41:48;8.65;;;2.00;;
66272;SDS011;58450;52.150;4.466;2023-05-16T00:44:16;8.20;;;1.77;;
66272;SDS011;58450;52.150;4.466;2023-05-16T00:46:43;10.30;;;1.98;;
66272;SDS011;58450;52.150;4.466;2023-05-16T00:49:11;10.63;;;1.75;;
66272;SDS011;58450;52.150;4.466;2023-05-16T00:51:40;9.60;;;1.90;;
66272;SDS011;58450;52.150;4.466;2023-05-16T00:54:08;6.78;;;1.45;;
66272;SDS011;58450;52.150;4.466;2023-05-16T00:56:37;8.25;;;1.67;;
66272;SDS011;58450;52.150;4.466;2023-05-16T00:59:05;8.02;;;1.80;;
66272;SDS011;58450;52.150;4.466;2023-05-16T01:01:33;8.23;;;1.35;;
66272;SDS011;58450;52.150;4.466;2023-05-16T01:04:04;10.05;;;2.20;;
66272;SDS011;58450;52.150;4.466;2023-05-16T01:06:32;12.57;;;2.15;;
66272;SDS011;58450;52.150;4.466;2023-05-16T01:09:02;6.90;;;1.70;;
66272;SDS011;58450;52.150;4.466;2023-05-16T01:11:32;10.00;;;1.80;;
66272;SDS011;58450;52.150;4.466;2023-05-16T01:14:14;7.07;;;1.67;;
66272;SDS011;58450;52.150;4.466;2023-05-16T01:16:53;8.10;;;1.95;;
66272;SDS011;58450;52.150;4.466;2023-05-16T01:19:40;6.78;;;1.70;;
66272;SDS011;58450;52.150;4.466;2023-05-16T01:22:28;9.38;;;1.63;;
66272;SDS011;58450;52.150;4.466;2023-05-16T01:25:10;10.52;;;1.88;;
66272;SDS011;58450;52.150;4.466;2023-05-16T01:30:31;7.20;;;1.38;;
66272;SDS011;58450;52.150;4.466;2023-05-16T01:33:01;7.30;;;1.40;;
66272;SDS011;58450;52.150;4.466;2023-05-16T01:35:28;11.70;;;2.47;;
66272;SDS011;58450;52.150;4.466;2023-05-16T01:37:58;8.05;;;1.75;;
66272;SDS011;58450;52.150;4.466;2023-05-16T01:40:34;6.80;;;1.42;;
66272;SDS011;58450;52.150;4.466;2023-05-16T01:43:14;8.07;;;1.42;;
66272;SDS011;58450;52.150;4.466;2023-05-16T01:45:49;10.73;;;1.73;;
66272;SDS011;58450;52.150;4.466;2023-05-16T01:48:29;7.20;;;1.48;;
66272;SDS011;58450;52.150;4.466;2023-05-16T01:51:03;6.60;;;1.40;;
66272;SDS011;58450;52.150;4.466;2023-05-16T01:53:35;6.97;;;1.73;;
66272;SDS011;58450;52.150;4.466;2023-05-16T01:56:07;6.65;;;1.40;;
66272;SDS011;58450;52.150;4.466;2023-05-16T01:58:42;5.82;;;1.40;;
66272;SDS011;58450;52.150;4.466;2023-05-16T02:01:12;5.00;;;1.27;;
66272;SDS011;58450;52.150;4.466;2023-05-16T02:03:40;8.25;;;1.55;;
66272;SDS011;58450;52.150;4.466;2023-05-16T02:06:07;5.97;;;1.40;;
66272;SDS011;58450;52.150;4.466;2023-05-16T02:08:35;6.50;;;1.40;;
66272;SDS011;58450;52.150;4.466;2023-05-16T02:11:02;8.63;;;1.63;;
66272;SDS011;58450;52.150;4.466;2023-05-16T02:13:30;11.10;;;1.80;;
66272;SDS011;58450;52.150;4.466;2023-05-16T02:15:59;9.13;;;1.60;;
66272;SDS011;58450;52.150;4.466;2023-05-16T02:18:26;7.88;;;1.50;;
66272;SDS011;58450;52.150;4.466;2023-05-16T02:20:54;8.85;;;1.90;;
66272;SDS011;58450;52.150;4.466;2023-05-16T02:23:21;8.23;;;1.70;;
66272;SDS011;58450;52.150;4.466;2023-05-16T02:25:49;6.25;;;1.40;;
66272;SDS011;58450;52.150;4.466;2023-05-16T02:28:16;8.15;;;1.75;;
66272;SDS011;58450;52.150;4.466;2023-05-16T02:30:44;8.02;;;1.80;;
66272;SDS011;58450;52.150;4.466;2023-05-16T02:33:12;9.65;;;1.98;;
66272;SDS011;58450;52.150;4.466;2023-05-16T02:35:40;6.07;;;1.50;;
66272;SDS011;58450;52.150;4.466;2023-05-16T02:38:07;6.00;;;1.50;;
66272;SDS011;58450;52.150;4.466;2023-05-16T02:40:35;9.32;;;1.67;;
66272;SDS011;58450;52.150;4.466;2023-05-16T02:43:02;13.07;;;2.35;;
66272;SDS011;58450;52.150;4.466;2023-05-16T02:45:31;7.82;;;1.67;;
66272;SDS011;58450;52.150;4.466;2023-05-16T02:47:58;8.05;;;1.85;;
66272;SDS011;58450;52.150;4.466;2023-05-16T02:50:27;7.35;;;1.65;;
66272;SDS011;58450;52.150;4.466;2023-05-16T02:52:55;11.35;;;1.90;;
66272;SDS011;58450;52.150;4.466;2023-05-16T02:55:24;9.00;;;1.58;;
66272;SDS011;58450;52.150;4.466;2023-05-16T02:57:52;10.52;;;1.85;;
66272;SDS011;58450;52.150;4.466;2023-05-16T03:00:20;7.43;;;1.55;;
66272;SDS011;58450;52.150;4.466;2023-05-16T03:02:48;8.48;;;1.90;;
66272;SDS011;58450;52.150;4.466;2023-05-16T03:05:15;5.30;;;1.45;;
66272;SDS011;58450;52.150;4.466;2023-05-16T03:07:45;10.10;;;1.77;;
66272;SDS011;58450;52.150;4.466;2023-05-16T03:10:13;11.38;;;2.30;;
66272;SDS011;58450;52.150;4.466;2023-05-16T03:12:40;7.32;;;1.33;;
66272;SDS011;58450;52.150;4.466;2023-05-16T03:15:08;10.50;;;2.20;;
66272;SDS011;58450;52.150;4.466;2023-05-16T03:17:36;8.05;;;1.58;;
66272;SDS011;58450;52.150;4.466;2023-05-16T03:20:04;8.50;;;1.88;;
66272;SDS011;58450;52.150;4.466;2023-05-16T03:22:34;6.50;;;1.40;;
66272;SDS011;58450;52.150;4.466;2023-05-16T03:25:03;7.90;;;1.88;;
66272;SDS011;58450;52.150;4.466;2023-05-16T03:27:31;8.30;;;1.63;;
66272;SDS011;58450;52.150;4.466;2023-05-16T03:29:59;8.40;;;1.73;;
66272;SDS011;58450;52.150;4.466;2023-05-16T03:32:26;6.93;;;1.70;;
66272;SDS011;58450;52.150;4.466;2023-05-16T03:34:53;6.40;;;1.55;;
66272;SDS011;58450;52.150;4.466;2023-05-16T03:37:21;8.48;;;1.40;;
66272;SDS011;58450;52.150;4.466;2023-05-16T03:39:49;11.70;;;2.05;;
66272;SDS011;58450;52.150;4.466;2023-05-16T03:42:17;6.28;;;1.60;;
66272;SDS011;58450;52.150;4.466;2023-05-16T03:44:45;10.10;;;1.45;;
66272;SDS011;58450;52.150;4.466;2023-05-16T03:47:12;7.18;;;1.42;;
66272;SDS011;58450;52.150;4.466;2023-05-16T03:49:40;9.27;;;1.80;;
66272;SDS011;58450;52.150;4.466;2023-05-16T03:52:08;7.75;;;1.63;;
66272;SDS011;58450;52.150;4.466;2023-05-16T03:54:36;7.38;;;1.65;;
66272;SDS011;58450;52.150;4.466;2023-05-16T03:57:03;7.55;;;1.60;;
66272;SDS011;58450;52.150;4.466;2023-05-16T03:59:33;8.85;;;1.60;;
66272;SDS011;58450;52.150;4.466;2023-05-16T04:02:01;6.72;;;1.27;;
66272;SDS011;58450;52.150;4.466;2023-05-16T04:04:28;9.35;;;1.42;;
66272;SDS011;58450;52.150;4.466;2023-05-16T04:06:56;4.53;;;1.25;;
66272;SDS011;58450;52.150;4.466;2023-05-16T04:09:23;6.22;;;1.35;;
66272;SDS011;58450;52.150;4.466;2023-05-16T04:11:51;7.25;;;1.17;;
66272;SDS011;58450;52.150;4.466;2023-05-16T04:14:21;7.38;;;1.20;;
66272;SDS011;58450;52.150;4.466;2023-05-16T04:16:50;5.90;;;1.40;;
66272;SDS011;58450;52.150;4.466;2023-05-16T04:19:18;6.22;;;1.35;;
66272;SDS011;58450;52.150;4.466;2023-05-16T04:21:45;6.72;;;1.40;;
66272;SDS011;58450;52.150;4.466;2023-05-16T04:24:12;6.35;;;1.25;;
66272;SDS011;58450;52.150;4.466;2023-05-16T04:26:40;8.15;;;1.30;;
66272;SDS011;58450;52.150;4.466;2023-05-16T04:29:07;6.07;;;1.52;;
66272;SDS011;58450;52.150;4.466;2023-05-16T04:31:36;5.57;;;1.30;;
66272;SDS011;58450;52.150;4.466;2023-05-16T04:34:05;9.13;;;1.45;;
66272;SDS011;58450;52.150;4.466;2023-05-16T04:36:33;9.20;;;1.38;;
66272;SDS011;58450;52.150;4.466;2023-05-16T04:39:00;7.22;;;1.95;;
66272;SDS011;58450;52.150;4.466;2023-05-16T04:41:28;9.18;;;1.70;;
66272;SDS011;58450;52.150;4.466;2023-05-16T04:43:55;7.97;;;1.58;;
66272;SDS011;58450;52.150;4.466;2023-05-16T04:46:23;9.43;;;1.60;;
66272;SDS011;58450;52.150;4.466;2023-05-16T04:48:51;7.32;;;1.30;;
66272;SDS011;58450;52.150;4.466;2023-05-16T04:51:20;4.47;;;1.23;;
66272;SDS011;58450;52.150;4.466;2023-05-16T04:53:47;5.28;;;1.20;;
66272;SDS011;58450;52.150;4.466;2023-05-16T04:56:15;5.90;;;1.38;;
66272;SDS011;58450;52.150;4.466;2023-05-16T04:58:42;7.72;;;1.45;;
66272;SDS011;58450;52.150;4.466;2023-05-16T05:01:10;3.38;;;1.23;;
66272;SDS011;58450;52.150;4.466;2023-05-16T05:03:37;8.48;;;1.30;;
66272;SDS011;58450;52.150;4.466;2023-05-16T05:06:05;7.00;;;1.33;;
66272;SDS011;58450;52.150;4.466;2023-05-16T05:08:34;11.77;;;1.77;;
66272;SDS011;58450;52.150;4.466;2023-05-16T05:11:02;6.50;;;1.63;;
66272;SDS011;58450;52.150;4.466;2023-05-16T05:13:30;5.75;;;1.63;;
66272;SDS011;58450;52.150;4.466;2023-05-16T05:15:57;5.43;;;1.48;;
66272;SDS011;58450;52.150;4.466;2023-05-16T05:18:26;7.05;;;1.45;;
66272;SDS011;58450;52.150;4.466;2023-05-16T05:20:54;6.60;;;1.17;;
66272;SDS011;58450;52.150;4.466;2023-05-16T05:23:22;8.15;;;1.42;;
66272;SDS011;58450;52.150;4.466;2023-05-16T05:25:51;6.20;;;1.40;;
66272;SDS011;58450;52.150;4.466;2023-05-16T05:28:19;3.95;;;1.00;;
66272;SDS011;58450;52.150;4.466;2023-05-16T05:30:46;6.80;;;1.30;;
66272;SDS011;58450;52.150;4.466;2023-05-16T05:33:15;6.68;;;1.42;;
66272;SDS011;58450;52.150;4.466;2023-05-16T05:35:43;5.65;;;1.33;;
66272;SDS011;58450;52.150;4.466;2023-05-16T05:38:11;3.17;;;1.20;;
66272;SDS011;58450;52.150;4.466;2023-05-16T05:40:38;5.78;;;1.20;;
66272;SDS011;58450;52.150;4.466;2023-05-16T05:43:07;5.68;;;1.52;;
66272;SDS011;58450;52.150;4.466;2023-05-16T05:45:35;7.05;;;1.42;;
66272;SDS011;58450;52.150;4.466;2023-05-16T05:48:03;8.98;;;1.42;;
66272;SDS011;58450;52.150;4.466;2023-05-16T05:50:31;4.45;;;1.52;;
66272;SDS011;58450;52.150;4.466;2023-05-16T05:52:59;8.27;;;1.60;;
66272;SDS011;58450;52.150;4.466;2023-05-16T05:55:26;5.45;;;1.10;;
66272;SDS011;58450;52.150;4.466;2023-05-16T05:57:54;4.65;;;1.30;;
66272;SDS011;58450;52.150;4.466;2023-05-16T06:00:23;6.63;;;1.33;;
66272;SDS011;58450;52.150;4.466;2023-05-16T06:02:51;5.65;;;1.23;;
66272;SDS011;58450;52.150;4.466;2023-05-16T06:05:18;6.70;;;1.42;;
66272;SDS011;58450;52.150;4.466;2023-05-16T06:07:46;5.40;;;1.58;;
66272;SDS011;58450;52.150;4.466;2023-05-16T06:10:13;3.63;;;0.98;;
66272;SDS011;58450;52.150;4.466;2023-05-16T06:12:41;5.07;;;1.10;;
66272;SDS011;58450;52.150;4.466;2023-05-16T06:15:09;6.32;;;1.15;;
66272;SDS011;58450;52.150;4.466;2023-05-16T06:17:38;4.20;;;1.00;;
66272;SDS011;58450;52.150;4.466;2023-05-16T06:20:07;4.63;;;1.02;;
66272;SDS011;58450;52.150;4.466;2023-05-16T06:22:35;5.40;;;1.08;;
66272;SDS011;58450;52.150;4.466;2023-05-16T06:25:02;5.10;;;0.93;;
66272;SDS011;58450;52.150;4.466;2023-05-16T06:27:30;4.35;;;1.15;;
66272;SDS011;58450;52.150;4.466;2023-05-16T06:29:57;5.07;;;1.38;;
66272;SDS011;58450;52.150;4.466;2023-05-16T06:32:25;5.68;;;1.10;;
66272;SDS011;58450;52.150;4.466;2023-05-16T06:34:54;3.67;;;0.95;;
66272;SDS011;58450;52.150;4.466;2023-05-16T06:37:21;6.47;;;1.20;;
66272;SDS011;58450;52.150;4.466;2023-05-16T06:39:50;5.65;;;1.20;;
66272;SDS011;58450;52.150;4.466;2023-05-16T06:42:18;4.25;;;1.20;;
66272;SDS011;58450;52.150;4.466;2023-05-16T06:44:46;3.72;;;1.05;;
66272;SDS011;58450;52.150;4.466;2023-05-16T06:47:14;6.20;;;1.30;;
66272;SDS011;58450;52.150;4.466;2023-05-16T06:49:42;5.05;;;1.30;;
66272;SDS011;58450;52.150;4.466;2023-05-16T06:52:11;6.05;;;1.50;;
66272;SDS011;58450;52.150;4.466;2023-05-16T06:54:38;6.68;;;1.40;;
66272;SDS011;58450;52.150;4.466;2023-05-16T06:57:06;7.43;;;1.20;;
66272;SDS011;58450;52.150;4.466;2023-05-16T06:59:34;5.18;;;1.00;;
66272;SDS011;58450;52.150;4.466;2023-05-16T07:02:01;3.97;;;1.10;;
66272;SDS011;58450;52.150;4.466;2023-05-16T07:04:29;6.47;;;1.38;;
66272;SDS011;58450;52.150;4.466;2023-05-16T07:06:56;2.92;;;0.95;;
66272;SDS011;58450;52.150;4.466;2023-05-16T07:09:25;5.15;;;0.98;;
66272;SDS011;58450;52.150;4.466;2023-05-16T07:11:53;4.65;;;1.20;;
66272;SDS011;58450;52.150;4.466;2023-05-16T07:14:20;4.03;;;1.00;;
66272;SDS011;58450;52.150;4.466;2023-05-16T07:16:48;5.90;;;1.30;;
66272;SDS011;58450;52.150;4.466;2023-05-16T07:19:15;4.93;;;0.93;;
66272;SDS011;58450;52.150;4.466;2023-05-16T07:21:43;5.32;;;1.15;;
66272;SDS011;58450;52.150;4.466;2023-05-16T07:24:10;6.80;;;1.55;;
66272;SDS011;58450;52.150;4.466;2023-05-16T07:26:39;3.28;;;0.88;;
66272;SDS011;58450;52.150;4.466;2023-05-16T07:29:07;4.03;;;0.95;;
66272;SDS011;58450;52.150;4.466;2023-05-16T07:31:34;5.10;;;1.00;;
66272;SDS011;58450;52.150;4.466;2023-05-16T07:34:02;3.97;;;1.00;;
66272;SDS011;58450;52.150;4.466;2023-05-16T07:36:29;6.25;;;1.30;;
66272;SDS011;58450;52.150;4.466;2023-05-16T07:38:57;2.97;;;0.95;;
66272;SDS011;58450;52.150;4.466;2023-05-16T07:41:25;3.72;;;0.90;;
66272;SDS011;58450;52.150;4.466;2023-05-16T07:43:54;4.50;;;1.17;;
66272;SDS011;58450;52.150;4.466;2023-05-16T07:46:21;2.72;;;0.82;;
66272;SDS011;58450;52.150;4.466;2023-05-16T07:48:49;3.70;;;0.90;;
66272;SDS011;58450;52.150;4.466;2023-05-16T07:51:16;5.88;;;1.00;;
66272;SDS011;58450;52.150;4.466;2023-05-16T07:53:44;3.63;;;0.90;;
66272;SDS011;58450;52.150;4.466;2023-05-16T07:56:11;7.13;;;1.27;;
66272;SDS011;58450;52.150;4.466;2023-05-16T07:58:39;4.55;;;1.10;;
66272;SDS011;58450;52.150;4.466;2023-05-16T08:01:09;5.05;;;1.02;;
66272;SDS011;58450;52.150;4.466;2023-05-16T08:03:36;3.90;;;1.08;;
66272;SDS011;58450;52.150;4.466;2023-05-16T08:06:04;4.43;;;1.00;;
66272;SDS011;58450;52.150;4.466;2023-05-16T08:08:32;4.35;;;1.10;;
66272;SDS011;58450;52.150;4.466;2023-05-16T08:10:59;3.83;;;0.95;;
66272;SDS011;58450;52.150;4.466;2023-05-16T08:13:27;5.55;;;1.20;;
66272;SDS011;58450;52.150;4.466;2023-05-16T08:15:54;4.18;;;1.10;;
66272;SDS011;58450;52.150;4.466;2023-05-16T08:18:23;6.82;;;1.50;;
66272;SDS011;58450;52.150;4.466;2023-05-16T08:20:50;3.17;;;0.90;;
66272;SDS011;58450;52.150;4.466;2023-05-16T08:23:18;4.53;;;1.17;;
66272;SDS011;58450;52.150;4.466;2023-05-16T08:25:45;4.13;;;0.98;;
66272;SDS011;58450;52.150;4.466;2023-05-16T08:28:13;3.33;;;1.10;;
66272;SDS011;58450;52.150;4.466;2023-05-16T08:30:41;4.28;;;1.20;;
66272;SDS011;58450;52.150;4.466;2023-05-16T08:33:08;2.00;;;0.80;;
66272;SDS011;58450;52.150;4.466;2023-05-16T08:35:38;2.75;;;1.00;;
66272;SDS011;58450;52.150;4.466;2023-05-16T08:38:08;2.92;;;0.93;;
66272;SDS011;58450;52.150;4.466;2023-05-16T08:40:36;5.18;;;1.38;;
66272;SDS011;58450;52.150;4.466;2023-05-16T08:43:03;7.45;;;1.35;;
66272;SDS011;58450;52.150;4.466;2023-05-16T08:45:31;4.35;;;1.25;;
66272;SDS011;58450;52.150;4.466;2023-05-16T08:47:59;4.80;;;1.13;;
66272;SDS011;58450;52.150;4.466;2023-05-16T08:50:28;4.43;;;1.20;;
66272;SDS011;58450;52.150;4.466;2023-05-16T08:53:00;4.88;;;1.17;;
66272;SDS011;58450;52.150;4.466;2023-05-16T08:55:32;5.85;;;1.10;;
66272;SDS011;58450;52.150;4.466;2023-05-16T08:58:02;5.60;;;1.20;;
66272;SDS011;58450;52.150;4.466;2023-05-16T09:00:30;5.35;;;1.05;;
66272;SDS011;58450;52.150;4.466;2023-05-16T09:02:58;3.75;;;0.98;;
66272;SDS011;58450;52.150;4.466;2023-05-16T09:05:28;4.57;;;0.90;;
66272;SDS011;58450;52.150;4.466;2023-05-16T09:07:56;3.97;;;1.00;;
66272;SDS011;58450;52.150;4.466;2023-05-16T09:10:26;5.40;;;1.20;;
66272;SDS011;58450;52.150;4.466;2023-05-16T09:12:53;5.03;;;1.10;;
66272;SDS011;58450;52.150;4.466;2023-05-16T09:15:21;6.88;;;1.00;;
66272;SDS011;58450;52.150;4.466;2023-05-16T09:17:48;4.30;;;1.17;;
66272;SDS011;58450;52.150;4.466;2023-05-16T09:20:16;6.97;;;1.30;;
66272;SDS011;58450;52.150;4.466;2023-05-16T09:22:49;6.05;;;1.05;;
66272;SDS011;58450;52.150;4.466;2023-05-16T09:25:20;3.63;;;1.00;;
66272;SDS011;58450;52.150;4.466;2023-05-16T09:27:51;3.45;;;0.80;;
66272;SDS011;58450;52.150;4.466;2023-05-16T09:30:20;3.35;;;1.00;;
66272;SDS011;58450;52.150;4.466;2023-05-16T09:32:50;5.95;;;1.10;;
66272;SDS011;58450;52.150;4.466;2023-05-16T09:35:19;4.00;;;1.20;;
66272;SDS011;58450;52.150;4.466;2023-05-16T09:37:49;3.17;;;0.88;;
66272;SDS011;58450;52.150;4.466;2023-05-16T09:40:20;5.47;;;1.10;;
66272;SDS011;58450;52.150;4.466;2023-05-16T09:42:51;5.20;;;0.90;;
66272;SDS011;58450;52.150;4.466;2023-05-16T09:45:30;4.45;;;1.08;;
66272;SDS011;58450;52.150;4.466;2023-05-16T09:48:00;4.05;;;0.88;;
66272;SDS011;58450;52.150;4.466;2023-05-16T09:50:31;2.90;;;1.00;;
66272;SDS011;58450;52.150;4.466;2023-05-16T09:53:00;5.93;;;1.30;;
66272;SDS011;58450;52.150;4.466;2023-05-16T09:55:29;3.42;;;0.90;;
66272;SDS011;58450;52.150;4.466;2023-05-16T09:57:58;3.28;;;0.80;;
66272;SDS011;58450;52.150;4.466;2023-05-16T10:00:28;3.15;;;0.80;;
66272;SDS011;58450;52.150;4.466;2023-05-16T10:02:57;3.00;;;1.00;;
66272;SDS011;58450;52.150;4.466;2023-05-16T10:05:26;3.60;;;0.82;;
66272;SDS011;58450;52.150;4.466;2023-05-16T10:07:54;2.38;;;0.68;;
66272;SDS011;58450;52.150;4.466;2023-05-16T10:10:23;3.60;;;0.85;;
66272;SDS011;58450;52.150;4.466;2023-05-16T10:12:54;6.82;;;1.17;;
66272;SDS011;58450;52.150;4.466;2023-05-16T10:15:27;5.95;;;0.93;;
66272;SDS011;58450;52.150;4.466;2023-05-16T10:17:55;4.00;;;0.90;;
66272;SDS011;58450;52.150;4.466;2023-05-16T10:20:26;5.75;;;1.15;;
66272;SDS011;58450;52.150;4.466;2023-05-16T10:22:54;8.13;;;1.10;;
66272;SDS011;58450;52.150;4.466;2023-05-16T10:25:24;2.42;;;0.80;;
66272;SDS011;58450;52.150;4.466;2023-05-16T10:27:59;3.95;;;1.00;;
66272;SDS011;58450;52.150;4.466;2023-05-16T10:30:28;5.38;;;0.80;;
66272;SDS011;58450;52.150;4.466;2023-05-16T10:33:00;2.80;;;0.93;;
66272;SDS011;58450;52.150;4.466;2023-05-16T10:35:29;5.57;;;0.88;;
66272;SDS011;58450;52.150;4.466;2023-05-16T10:37:57;4.20;;;1.10;;
66272;SDS011;58450;52.150;4.466;2023-05-16T10:40:27;5.00;;;1.10;;
66272;SDS011;58450;52.150;4.466;2023-05-16T10:42:56;4.78;;;0.93;;
66272;SDS011;58450;52.150;4.466;2023-05-16T10:45:27;5.22;;;1.27;;
66272;SDS011;58450;52.150;4.466;2023-05-16T10:47:54;4.80;;;1.00;;
66272;SDS011;58450;52.150;4.466;2023-05-16T10:50:30;2.72;;;0.80;;
66272;SDS011;58450;52.150;4.466;2023-05-16T10:53:10;4.07;;;1.10;;
66272;SDS011;58450;52.150;4.466;2023-05-16T10:55:50;5.50;;;0.97;;
66272;SDS011;58450;52.150;4.466;2023-05-16T10:58:42;3.67;;;0.95;;
66272;SDS011;58450;52.150;4.466;2023-05-16T11:01:15;4.97;;;1.10;;
66272;SDS011;58450;52.150;4.466;2023-05-16T11:04:02;3.92;;;0.95;;
66272;SDS011;58450;52.150;4.466;2023-05-16T11:06:51;5.70;;;0.95;;
66272;SDS011;58450;52.150;4.466;2023-05-16T11:09:22;4.57;;;1.08;;
66272;SDS011;58450;52.150;4.466;2023-05-16T11:11:53;3.78;;;0.75;;
66272;SDS011;58450;52.150;4.466;2023-05-16T11:14:25;4.47;;;1.02;;
66272;SDS011;58450;52.150;4.466;2023-05-16T11:17:00;4.03;;;1.27;;
66272;SDS011;58450;52.150;4.466;2023-05-16T11:19:33;4.15;;;0.90;;
66272;SDS011;58450;52.150;4.466;2023-05-16T11:22:08;5.30;;;1.30;;
66272;SDS011;58450;52.150;4.466;2023-05-16T11:24:55;5.03;;;0.80;;
66272;SDS011;58450;52.150;4.466;2023-05-16T11:29:58;5.32;;;0.90;;
66272;SDS011;58450;52.150;4.466;2023-05-16T11:32:37;3.50;;;0.95;;
66272;SDS011;58450;52.150;4.466;2023-05-16T11:35:07;5.13;;;0.88;;
66272;SDS011;58450;52.150;4.466;2023-05-16T11:37:37;3.72;;;0.85;;
66272;SDS011;58450;52.150;4.466;2023-05-16T11:40:05;5.53;;;1.08;;
66272;SDS011;58450;52.150;4.466;2023-05-16T11:42:36;3.13;;;0.98;;
66272;SDS011;58450;52.150;4.466;2023-05-16T11:45:08;3.05;;;0.70;;
66272;SDS011;58450;52.150;4.466;2023-05-16T11:47:38;3.67;;;0.95;;
66272;SDS011;58450;52.150;4.466;2023-05-16T11:50:09;4.95;;;1.20;;
66272;SDS011;58450;52.150;4.466;2023-05-16T11:52:40;4.05;;;0.80;;
66272;SDS011;58450;52.150;4.466;2023-05-16T11:55:10;4.95;;;1.00;;
66272;SDS011;58450;52.150;4.466;2023-05-16T11:57:39;3.65;;;0.90;;
66272;SDS011;58450;52.150;4.466;2023-05-16T12:00:14;2.80;;;0.77;;
66272;SDS011;58450;52.150;4.466;2023-05-16T12:02:44;4.65;;;1.08;;
66272;SDS011;58450;52.150;4.466;2023-05-16T12:05:12;5.72;;;1.00;;
66272;SDS011;58450;52.150;4.466;2023-05-16T12:07:42;3.17;;;0.70;;
66272;SDS011;58450;52.150;4.466;2023-05-16T12:10:10;2.70;;;0.70;;
66272;SDS011;58450;52.150;4.466;2023-05-16T12:12:40;4.95;;;0.90;;
66272;SDS011;58450;52.150;4.466;2023-05-16T12:15:10;3.25;;;0.80;;
66272;SDS011;58450;52.150;4.466;2023-05-16T12:17:41;5.65;;;1.08;;
66272;SDS011;58450;52.150;4.466;2023-05-16T12:20:09;4.20;;;1.08;;
66272;SDS011;58450;52.150;4.466;2023-05-16T12:22:39;3.33;;;0.90;;
66272;SDS011;58450;52.150;4.466;2023-05-16T12:25:23;4.30;;;0.80;;
66272;SDS011;58450;52.150;4.466;2023-05-16T12:27:53;3.78;;;0.80;;
66272;SDS011;58450;52.150;4.466;2023-05-16T12:30:24;4.18;;;1.23;;
66272;SDS011;58450;52.150;4.466;2023-05-16T12:32:56;3.13;;;0.70;;
66272;SDS011;58450;52.150;4.466;2023-05-16T12:35:24;7.60;;;1.20;;
66272;SDS011;58450;52.150;4.466;2023-05-16T12:37:56;3.33;;;0.82;;
66272;SDS011;58450;52.150;4.466;2023-05-16T12:40:26;4.13;;;1.02;;
66272;SDS011;58450;52.150;4.466;2023-05-16T12:42:54;4.35;;;0.82;;
66272;SDS011;58450;52.150;4.466;2023-05-16T12:45:25;4.97;;;1.20;;
66272;SDS011;58450;52.150;4.466;2023-05-16T12:47:54;3.70;;;0.80;;
66272;SDS011;58450;52.150;4.466;2023-05-16T12:50:21;4.80;;;0.80;;
66272;SDS011;58450;52.150;4.466;2023-05-16T12:52:49;4.30;;;1.00;;
66272;SDS011;58450;52.150;4.466;2023-05-16T12:55:20;4.93;;;1.02;;
66272;SDS011;58450;52.150;4.466;2023-05-16T12:57:49;3.13;;;0.80;;
66272;SDS011;58450;52.150;4.466;2023-05-16T13:00:18;3.47;;;1.08;;
66272;SDS011;58450;52.150;4.466;2023-05-16T13:02:48;6.38;;;1.20;;
66272;SDS011;58450;52.150;4.466;2023-05-16T13:05:15;3.70;;;0.90;;
66272;SDS011;58450;52.150;4.466;2023-05-16T13:07:43;4.13;;;0.93;;
66272;SDS011;58450;52.150;4.466;2023-05-16T13:10:10;3.80;;;0.80;;
66272;SDS011;58450;52.150;4.466;2023-05-16T13:12:39;3.30;;;0.80;;
66272;SDS011;58450;52.150;4.466;2023-05-16T13:15:07;3.08;;;0.65;;
66272;SDS011;58450;52.150;4.466;2023-05-16T13:17:37;2.25;;;0.63;;
66272;SDS011;58450;52.150;4.466;2023-05-16T13:20:07;3.30;;;0.82;;
66272;SDS011;58450;52.150;4.466;2023-05-16T13:22:39;2.63;;;0.80;;
66272;SDS011;58450;52.150;4.466;2023-05-16T13:25:07;5.90;;;1.00;;
66272;SDS011;58450;52.150;4.466;2023-05-16T13:27:37;4.20;;;0.90;;
66272;SDS011;58450;52.150;4.466;2023-05-16T13:30:05;4.00;;;0.80;;
66272;SDS011;58450;52.150;4.466;2023-05-16T13:32:34;1.88;;;0.50;;
66272;SDS011;58450;52.150;4.466;2023-05-16T13:35:01;3.47;;;0.88;;
66272;SDS011;58450;52.150;4.466;2023-05-16T13:37:32;3.42;;;0.70;;
66272;SDS011;58450;52.150;4.466;2023-05-16T13:39:59;3.90;;;0.90;;
66272;SDS011;58450;52.150;4.466;2023-05-16T13:42:27;3.33;;;0.73;;
66272;SDS011;58450;52.150;4.466;2023-05-16T13:44:54;3.67;;;0.70;;
66272;SDS011;58450;52.150;4.466;2023-05-16T13:47:22;3.40;;;0.77;;
66272;SDS011;58450;52.150;4.466;2023-05-16T13:49:49;2.75;;;0.77;;
66272;SDS011;58450;52.150;4.466;2023-05-16T13:52:17;2.80;;;0.80;;
66272;SDS011;58450;52.150;4.466;2023-05-16T13:54:46;4.88;;;0.70;;
66272;SDS011;58450;52.150;4.466;2023-05-16T13:57:13;2.97;;;0.70;;
66272;SDS011;58450;52.150;4.466;2023-05-16T13:59:41;2.28;;;0.70;;
66272;SDS011;58450;52.150;4.466;2023-05-16T14:02:08;4.25;;;0.88;;
66272;SDS011;58450;52.150;4.466;2023-05-16T14:04:36;2.17;;;0.70;;
66272;SDS011;58450;52.150;4.466;2023-05-16T14:07:03;2.65;;;0.70;;
66272;SDS011;58450;52.150;4.466;2023-05-16T14:09:31;3.15;;;0.80;;
66272;SDS011;58450;52.150;4.466;2023-05-16T14:12:01;4.63;;;1.08;;
66272;SDS011;58450;52.150;4.466;2023-05-16T14:14:28;4.07;;;0.93;;
66272;SDS011;58450;52.150;4.466;2023-05-16T14:16:56;1.48;;;0.65;;
66272;SDS011;58450;52.150;4.466;2023-05-16T14:19:24;5.78;;;0.88;;
66272;SDS011;58450;52.150;4.466;2023-05-16T14:21:54;2.65;;;0.88;;
66272;SDS011;58450;52.150;4.466;2023-05-16T14:24:22;3.38;;;0.93;;
66272;SDS011;58450;52.150;4.466;2023-05-16T14:26:49;3.35;;;0.73;;
66272;SDS011;58450;52.150;4.466;2023-05-16T14:29:21;4.25;;;0.80;;
66272;SDS011;58450;52.150;4.466;2023-05-16T14:31:49;3.05;;;0.80;;
66272;SDS011;58450;52.150;4.466;2023-05-16T14:34:16;2.38;;;0.70;;
66272;SDS011;58450;52.150;4.466;2023-05-16T14:36:44;4.40;;;0.88;;
66272;SDS011;58450;52.150;4.466;2023-05-16T14:39:11;2.28;;;0.73;;
66272;SDS011;58450;52.150;4.466;2023-05-16T14:41:39;3.78;;;0.90;;
66272;SDS011;58450;52.150;4.466;2023-05-16T14:44:06;2.85;;;0.90;;
66272;SDS011;58450;52.150;4.466;2023-05-16T14:46:35;3.38;;;0.80;;
66272;SDS011;58450;52.150;4.466;2023-05-16T14:49:03;2.75;;;0.73;;
66272;SDS011;58450;52.150;4.466;2023-05-16T14:51:30;4.05;;;1.23;;
66272;SDS011;58450;52.150;4.466;2023-05-16T14:53:58;2.83;;;0.95;;
66272;SDS011;58450;52.150;4.466;2023-05-16T14:56:25;3.67;;;1.20;;
66272;SDS011;58450;52.150;4.466;2023-05-16T14:58:53;5.22;;;1.05;;
66272;SDS011;58450;52.150;4.466;2023-05-16T15:01:20;4.85;;;1.33;;
66272;SDS011;58450;52.150;4.466;2023-05-16T15:03:49;5.28;;;1.35;;
66272;SDS011;58450;52.150;4.466;2023-05-16T15:06:17;4.50;;;1.27;;